sensor_id;sensor_type;location;lat;lon;timestamp;P1;durP1;ratioP1;P2;durP2;ratioP2
31818;SDS011;18384;48.860;9.188;2022-11-20T00:01:26;17.23;;;9.30;;
31818;SDS011;18384;48.860;9.188;2022-11-20T00:03:54;12.15;;;8.27;;
31818;SDS011;18384;48.860;9.188;2022-11-20T00:06:23;15.60;;;9.05;;
31818;SDS011;18384;48.860;9.188;2022-11-20T00:08:50;16.08;;;9.80;;
31818;SDS011;18384;48.860;9.188;2022-11-20T00:11:20;15.40;;;8.90;;
31818;SDS011;18384;48.860;9.188;2022-11-20T00:13:49;13.40;;;8.23;;
31818;SDS011;18384;48.860;9.188;2022-11-20T00:16:18;25.10;;;8.43;;
31818;SDS011;18384;48.860;9.188;2022-11-20T00:18:47;21.50;;;10.02;;
31818;SDS011;18384;48.860;9.188;2022-11-20T00:23:43;22.13;;;9.43;;
31818;SDS011;18384;48.860;9.188;2022-11-20T00:26:10;15.00;;;9.90;;
31818;SDS011;18384;48.860;9.188;2022-11-20T00:28:40;17.83;;;9.70;;
31818;SDS011;18384;48.860;9.188;2022-11-20T00:31:08;17.25;;;9.32;;
31818;SDS011;18384;48.860;9.188;2022-11-20T00:33:37;22.05;;;11.40;;
31818;SDS011;18384;48.860;9.188;2022-11-20T00:36:04;23.62;;;10.95;;
31818;SDS011;18384;48.860;9.188;2022-11-20T00:38:37;26.10;;;11.45;;
31818;SDS011;18384;48.860;9.188;2022-11-20T00:43:32;19.73;;;10.90;;
31818;SDS011;18384;48.860;9.188;2022-11-20T00:45:59;19.80;;;10.35;;
31818;SDS011;18384;48.860;9.188;2022-11-20T00:48:28;19.80;;;10.43;;
31818;SDS011;18384;48.860;9.188;2022-11-20T00:50:55;17.95;;;10.20;;
31818;SDS011;18384;48.860;9.188;2022-11-20T00:53:22;21.73;;;11.10;;
31818;SDS011;18384;48.860;9.188;2022-11-20T00:55:58;20.50;;;10.95;;
31818;SDS011;18384;48.860;9.188;2022-11-20T00:58:29;18.08;;;10.90;;
31818;SDS011;18384;48.860;9.188;2022-11-20T01:01:02;20.02;;;10.45;;
31818;SDS011;18384;48.860;9.188;2022-11-20T01:06:03;15.55;;;9.85;;
31818;SDS011;18384;48.860;9.188;2022-11-20T01:08:36;18.20;;;10.20;;
31818;SDS011;18384;48.860;9.188;2022-11-20T01:11:07;18.15;;;10.73;;
31818;SDS011;18384;48.860;9.188;2022-11-20T01:13:36;18.62;;;10.38;;
31818;SDS011;18384;48.860;9.188;2022-11-20T01:16:10;16.42;;;9.48;;
31818;SDS011;18384;48.860;9.188;2022-11-20T01:19:01;17.50;;;10.90;;
31818;SDS011;18384;48.860;9.188;2022-11-20T01:21:34;19.52;;;11.45;;
31818;SDS011;18384;48.860;9.188;2022-11-20T01:24:03;20.37;;;11.02;;
31818;SDS011;18384;48.860;9.188;2022-11-20T01:26:33;21.98;;;11.20;;
31818;SDS011;18384;48.860;9.188;2022-11-20T01:29:03;21.20;;;11.27;;
31818;SDS011;18384;48.860;9.188;2022-11-20T01:31:31;21.02;;;12.45;;
31818;SDS011;18384;48.860;9.188;2022-11-20T01:34:01;19.58;;;10.57;;
31818;SDS011;18384;48.860;9.188;2022-11-20T01:36:34;25.85;;;11.75;;
31818;SDS011;18384;48.860;9.188;2022-11-20T01:39:04;22.73;;;11.50;;
31818;SDS011;18384;48.860;9.188;2022-11-20T01:41:36;24.50;;;12.05;;
31818;SDS011;18384;48.860;9.188;2022-11-20T01:44:22;17.98;;;10.25;;
31818;SDS011;18384;48.860;9.188;2022-11-20T01:47:40;18.20;;;10.93;;
31818;SDS011;18384;48.860;9.188;2022-11-20T01:50:19;22.42;;;10.98;;
31818;SDS011;18384;48.860;9.188;2022-11-20T01:55:41;16.30;;;9.73;;
31818;SDS011;18384;48.860;9.188;2022-11-20T01:58:16;15.15;;;8.48;;
31818;SDS011;18384;48.860;9.188;2022-11-20T02:00:48;14.63;;;8.32;;
31818;SDS011;18384;48.860;9.188;2022-11-20T02:05:46;13.20;;;8.23;;
31818;SDS011;18384;48.860;9.188;2022-11-20T02:09:06;26.62;;;8.55;;
31818;SDS011;18384;48.860;9.188;2022-11-20T02:11:32;11.35;;;7.85;;
31818;SDS011;18384;48.860;9.188;2022-11-20T02:13:58;15.50;;;8.73;;
31818;SDS011;18384;48.860;9.188;2022-11-20T02:16:25;13.80;;;7.90;;
31818;SDS011;18384;48.860;9.188;2022-11-20T02:18:56;12.95;;;8.23;;
31818;SDS011;18384;48.860;9.188;2022-11-20T02:21:34;14.30;;;9.10;;
31818;SDS011;18384;48.860;9.188;2022-11-20T02:24:53;12.05;;;8.32;;
31818;SDS011;18384;48.860;9.188;2022-11-20T02:27:25;13.20;;;8.27;;
31818;SDS011;18384;48.860;9.188;2022-11-20T02:32:20;10.73;;;7.07;;
31818;SDS011;18384;48.860;9.188;2022-11-20T02:38:26;11.90;;;7.45;;
31818;SDS011;18384;48.860;9.188;2022-11-20T02:40:52;12.15;;;6.93;;
31818;SDS011;18384;48.860;9.188;2022-11-20T02:43:18;12.88;;;6.97;;
31818;SDS011;18384;48.860;9.188;2022-11-20T02:45:44;11.32;;;6.95;;
31818;SDS011;18384;48.860;9.188;2022-11-20T02:48:10;8.50;;;6.37;;
31818;SDS011;18384;48.860;9.188;2022-11-20T02:50:37;9.93;;;6.10;;
31818;SDS011;18384;48.860;9.188;2022-11-20T02:53:05;9.25;;;6.07;;
31818;SDS011;18384;48.860;9.188;2022-11-20T02:55:32;10.50;;;5.78;;
31818;SDS011;18384;48.860;9.188;2022-11-20T02:57:58;8.88;;;5.57;;
31818;SDS011;18384;48.860;9.188;2022-11-20T03:00:24;10.05;;;4.97;;
31818;SDS011;18384;48.860;9.188;2022-11-20T03:02:50;9.00;;;4.55;;
31818;SDS011;18384;48.860;9.188;2022-11-20T03:05:16;7.15;;;4.57;;
31818;SDS011;18384;48.860;9.188;2022-11-20T03:07:43;7.72;;;4.35;;
31818;SDS011;18384;48.860;9.188;2022-11-20T03:10:09;8.65;;;4.40;;
31818;SDS011;18384;48.860;9.188;2022-11-20T03:12:35;7.20;;;3.92;;
31818;SDS011;18384;48.860;9.188;2022-11-20T03:15:01;7.35;;;3.72;;
31818;SDS011;18384;48.860;9.188;2022-11-20T03:17:28;5.68;;;3.10;;
31818;SDS011;18384;48.860;9.188;2022-11-20T03:19:56;6.72;;;3.30;;
31818;SDS011;18384;48.860;9.188;2022-11-20T03:22:22;5.22;;;3.08;;
31818;SDS011;18384;48.860;9.188;2022-11-20T03:24:48;6.80;;;2.80;;
31818;SDS011;18384;48.860;9.188;2022-11-20T03:27:14;5.45;;;2.85;;
31818;SDS011;18384;48.860;9.188;2022-11-20T03:29:40;4.12;;;3.17;;
31818;SDS011;18384;48.860;9.188;2022-11-20T03:32:06;6.25;;;3.15;;
31818;SDS011;18384;48.860;9.188;2022-11-20T03:34:32;6.15;;;3.40;;
31818;SDS011;18384;48.860;9.188;2022-11-20T03:36:58;4.65;;;3.00;;
31818;SDS011;18384;48.860;9.188;2022-11-20T03:39:24;4.07;;;2.80;;
31818;SDS011;18384;48.860;9.188;2022-11-20T03:41:51;5.60;;;2.30;;
31818;SDS011;18384;48.860;9.188;2022-11-20T03:44:17;7.87;;;2.72;;
31818;SDS011;18384;48.860;9.188;2022-11-20T03:46:47;6.87;;;2.80;;
31818;SDS011;18384;48.860;9.188;2022-11-20T03:49:13;3.55;;;2.22;;
31818;SDS011;18384;48.860;9.188;2022-11-20T03:51:39;4.28;;;2.55;;
31818;SDS011;18384;48.860;9.188;2022-11-20T03:54:06;8.85;;;2.60;;
31818;SDS011;18384;48.860;9.188;2022-11-20T03:56:34;4.45;;;2.95;;
31818;SDS011;18384;48.860;9.188;2022-11-20T03:59:03;5.68;;;2.90;;
31818;SDS011;18384;48.860;9.188;2022-11-20T04:01:31;4.45;;;2.60;;
31818;SDS011;18384;48.860;9.188;2022-11-20T04:04:00;4.00;;;2.35;;
31818;SDS011;18384;48.860;9.188;2022-11-20T04:06:30;5.68;;;2.90;;
31818;SDS011;18384;48.860;9.188;2022-11-20T04:09:01;5.03;;;2.83;;
31818;SDS011;18384;48.860;9.188;2022-11-20T04:11:28;4.40;;;2.90;;
31818;SDS011;18384;48.860;9.188;2022-11-20T04:13:58;6.90;;;2.67;;
31818;SDS011;18384;48.860;9.188;2022-11-20T04:16:28;5.47;;;2.55;;
31818;SDS011;18384;48.860;9.188;2022-11-20T04:18:58;4.43;;;2.50;;
31818;SDS011;18384;48.860;9.188;2022-11-20T04:21:28;4.37;;;3.08;;
31818;SDS011;18384;48.860;9.188;2022-11-20T04:26:21;5.07;;;3.10;;
31818;SDS011;18384;48.860;9.188;2022-11-20T04:28:49;8.85;;;2.72;;
31818;SDS011;18384;48.860;9.188;2022-11-20T04:31:16;5.78;;;2.97;;
31818;SDS011;18384;48.860;9.188;2022-11-20T04:33:51;5.47;;;3.10;;
31818;SDS011;18384;48.860;9.188;2022-11-20T04:38:46;5.78;;;2.95;;
31818;SDS011;18384;48.860;9.188;2022-11-20T04:41:17;4.55;;;2.78;;
31818;SDS011;18384;48.860;9.188;2022-11-20T04:43:47;4.60;;;3.08;;
31818;SDS011;18384;48.860;9.188;2022-11-20T04:46:14;6.15;;;2.90;;
31818;SDS011;18384;48.860;9.188;2022-11-20T04:48:41;7.12;;;2.95;;
31818;SDS011;18384;48.860;9.188;2022-11-20T04:51:07;6.80;;;3.25;;
31818;SDS011;18384;48.860;9.188;2022-11-20T04:53:33;8.75;;;2.72;;
31818;SDS011;18384;48.860;9.188;2022-11-20T04:56:00;5.43;;;3.00;;
31818;SDS011;18384;48.860;9.188;2022-11-20T04:58:28;6.75;;;2.95;;
31818;SDS011;18384;48.860;9.188;2022-11-20T05:01:01;3.75;;;2.62;;
31818;SDS011;18384;48.860;9.188;2022-11-20T05:03:34;6.72;;;3.35;;
31818;SDS011;18384;48.860;9.188;2022-11-20T05:06:03;5.72;;;3.40;;
31818;SDS011;18384;48.860;9.188;2022-11-20T05:08:31;4.75;;;2.95;;
31818;SDS011;18384;48.860;9.188;2022-11-20T05:11:05;6.25;;;3.05;;
31818;SDS011;18384;48.860;9.188;2022-11-20T05:13:37;9.35;;;3.53;;
31818;SDS011;18384;48.860;9.188;2022-11-20T05:16:04;5.05;;;2.60;;
31818;SDS011;18384;48.860;9.188;2022-11-20T05:18:34;7.03;;;3.12;;
31818;SDS011;18384;48.860;9.188;2022-11-20T05:21:01;4.50;;;2.60;;
31818;SDS011;18384;48.860;9.188;2022-11-20T05:23:28;4.90;;;2.80;;
31818;SDS011;18384;48.860;9.188;2022-11-20T05:25:56;4.45;;;2.95;;
31818;SDS011;18384;48.860;9.188;2022-11-20T05:28:23;4.55;;;2.92;;
31818;SDS011;18384;48.860;9.188;2022-11-20T05:30:51;5.60;;;2.95;;
31818;SDS011;18384;48.860;9.188;2022-11-20T05:33:17;5.43;;;3.12;;
31818;SDS011;18384;48.860;9.188;2022-11-20T05:35:43;5.55;;;2.97;;
31818;SDS011;18384;48.860;9.188;2022-11-20T05:38:11;4.60;;;3.00;;
31818;SDS011;18384;48.860;9.188;2022-11-20T05:43:03;4.20;;;2.62;;
31818;SDS011;18384;48.860;9.188;2022-11-20T05:45:29;3.92;;;2.60;;
31818;SDS011;18384;48.860;9.188;2022-11-20T05:47:59;5.43;;;3.17;;
31818;SDS011;18384;48.860;9.188;2022-11-20T05:50:26;5.70;;;3.00;;
31818;SDS011;18384;48.860;9.188;2022-11-20T05:52:53;4.53;;;3.33;;
31818;SDS011;18384;48.860;9.188;2022-11-20T05:55:19;6.60;;;3.50;;
31818;SDS011;18384;48.860;9.188;2022-11-20T05:57:45;4.87;;;3.20;;
31818;SDS011;18384;48.860;9.188;2022-11-20T06:00:11;7.85;;;3.55;;
31818;SDS011;18384;48.860;9.188;2022-11-20T06:02:38;6.65;;;3.00;;
31818;SDS011;18384;48.860;9.188;2022-11-20T06:05:05;4.60;;;2.65;;
31818;SDS011;18384;48.860;9.188;2022-11-20T06:07:31;5.50;;;3.03;;
31818;SDS011;18384;48.860;9.188;2022-11-20T06:09:57;5.70;;;2.72;;
31818;SDS011;18384;48.860;9.188;2022-11-20T06:12:23;5.15;;;2.87;;
31818;SDS011;18384;48.860;9.188;2022-11-20T06:14:50;6.60;;;3.15;;
31818;SDS011;18384;48.860;9.188;2022-11-20T06:17:16;3.78;;;2.60;;
31818;SDS011;18384;48.860;9.188;2022-11-20T06:19:42;7.18;;;3.08;;
31818;SDS011;18384;48.860;9.188;2022-11-20T06:22:08;6.90;;;3.20;;
31818;SDS011;18384;48.860;9.188;2022-11-20T06:24:34;8.50;;;3.10;;
31818;SDS011;18384;48.860;9.188;2022-11-20T06:27:00;3.47;;;2.40;;
31818;SDS011;18384;48.860;9.188;2022-11-20T06:29:26;4.60;;;3.25;;
31818;SDS011;18384;48.860;9.188;2022-11-20T06:31:54;6.32;;;3.10;;
31818;SDS011;18384;48.860;9.188;2022-11-20T06:34:20;8.18;;;2.75;;
31818;SDS011;18384;48.860;9.188;2022-11-20T06:36:46;4.40;;;2.62;;
31818;SDS011;18384;48.860;9.188;2022-11-20T06:39:12;4.30;;;2.50;;
31818;SDS011;18384;48.860;9.188;2022-11-20T06:41:38;8.32;;;2.70;;
31818;SDS011;18384;48.860;9.188;2022-11-20T06:44:04;7.93;;;3.08;;
31818;SDS011;18384;48.860;9.188;2022-11-20T06:46:30;5.20;;;3.08;;
31818;SDS011;18384;48.860;9.188;2022-11-20T06:48:57;5.78;;;3.17;;
31818;SDS011;18384;48.860;9.188;2022-11-20T06:53:49;5.20;;;3.05;;
31818;SDS011;18384;48.860;9.188;2022-11-20T06:56:15;6.90;;;3.47;;
31818;SDS011;18384;48.860;9.188;2022-11-20T06:58:41;5.30;;;2.92;;
31818;SDS011;18384;48.860;9.188;2022-11-20T07:01:11;7.25;;;3.22;;
31818;SDS011;18384;48.860;9.188;2022-11-20T07:03:39;5.45;;;3.10;;
31818;SDS011;18384;48.860;9.188;2022-11-20T07:06:06;4.03;;;2.58;;
31818;SDS011;18384;48.860;9.188;2022-11-20T07:08:33;3.00;;;2.10;;
31818;SDS011;18384;48.860;9.188;2022-11-20T07:11:00;9.85;;;2.22;;
31818;SDS011;18384;48.860;9.188;2022-11-20T07:13:29;2.47;;;1.83;;
31818;SDS011;18384;48.860;9.188;2022-11-20T07:15:59;2.80;;;1.90;;
31818;SDS011;18384;48.860;9.188;2022-11-20T07:18:30;3.40;;;1.98;;
31818;SDS011;18384;48.860;9.188;2022-11-20T07:20:59;4.90;;;1.48;;
31818;SDS011;18384;48.860;9.188;2022-11-20T07:23:30;2.92;;;1.58;;
31818;SDS011;18384;48.860;9.188;2022-11-20T07:25:56;3.37;;;1.77;;
31818;SDS011;18384;48.860;9.188;2022-11-20T07:28:22;3.80;;;1.75;;
31818;SDS011;18384;48.860;9.188;2022-11-20T07:30:52;2.70;;;1.42;;
31818;SDS011;18384;48.860;9.188;2022-11-20T07:33:19;3.05;;;1.80;;
31818;SDS011;18384;48.860;9.188;2022-11-20T07:38:11;3.33;;;1.60;;
31818;SDS011;18384;48.860;9.188;2022-11-20T07:40:37;3.72;;;2.08;;
31818;SDS011;18384;48.860;9.188;2022-11-20T07:43:03;3.42;;;1.85;;
31818;SDS011;18384;48.860;9.188;2022-11-20T07:45:29;2.40;;;1.75;;
31818;SDS011;18384;48.860;9.188;2022-11-20T07:47:55;6.22;;;2.70;;
31818;SDS011;18384;48.860;9.188;2022-11-20T07:50:21;6.40;;;2.20;;
31818;SDS011;18384;48.860;9.188;2022-11-20T07:52:47;5.93;;;2.00;;
31818;SDS011;18384;48.860;9.188;2022-11-20T07:55:14;4.22;;;2.40;;
31818;SDS011;18384;48.860;9.188;2022-11-20T08:00:07;4.32;;;1.62;;
31818;SDS011;18384;48.860;9.188;2022-11-20T08:02:37;4.37;;;2.12;;
31818;SDS011;18384;48.860;9.188;2022-11-20T08:05:07;3.95;;;2.35;;
31818;SDS011;18384;48.860;9.188;2022-11-20T08:07:43;3.83;;;1.80;;
31818;SDS011;18384;48.860;9.188;2022-11-20T08:10:14;3.10;;;1.80;;
31818;SDS011;18384;48.860;9.188;2022-11-20T08:12:51;5.43;;;1.90;;
31818;SDS011;18384;48.860;9.188;2022-11-20T08:15:37;2.72;;;1.70;;
31818;SDS011;18384;48.860;9.188;2022-11-20T08:18:08;3.33;;;1.73;;
31818;SDS011;18384;48.860;9.188;2022-11-20T08:20:36;7.57;;;2.25;;
31818;SDS011;18384;48.860;9.188;2022-11-20T08:23:04;4.65;;;2.00;;
31818;SDS011;18384;48.860;9.188;2022-11-20T08:25:32;3.65;;;1.95;;
31818;SDS011;18384;48.860;9.188;2022-11-20T08:28:01;3.37;;;1.60;;
31818;SDS011;18384;48.860;9.188;2022-11-20T08:30:35;3.28;;;2.05;;
31818;SDS011;18384;48.860;9.188;2022-11-20T08:33:05;4.78;;;1.83;;
31818;SDS011;18384;48.860;9.188;2022-11-20T08:35:35;2.67;;;1.50;;
31818;SDS011;18384;48.860;9.188;2022-11-20T08:38:03;2.53;;;1.33;;
31818;SDS011;18384;48.860;9.188;2022-11-20T08:40:31;2.75;;;1.50;;
31818;SDS011;18384;48.860;9.188;2022-11-20T08:42:58;2.15;;;1.10;;
31818;SDS011;18384;48.860;9.188;2022-11-20T08:45:25;2.40;;;1.30;;
31818;SDS011;18384;48.860;9.188;2022-11-20T08:47:52;2.15;;;1.23;;
31818;SDS011;18384;48.860;9.188;2022-11-20T08:50:19;4.03;;;1.40;;
31818;SDS011;18384;48.860;9.188;2022-11-20T08:52:45;1.55;;;0.90;;
31818;SDS011;18384;48.860;9.188;2022-11-20T08:55:17;2.17;;;1.27;;
31818;SDS011;18384;48.860;9.188;2022-11-20T08:57:46;2.22;;;1.20;;
31818;SDS011;18384;48.860;9.188;2022-11-20T09:00:12;2.85;;;1.20;;
31818;SDS011;18384;48.860;9.188;2022-11-20T09:02:40;1.73;;;0.90;;
31818;SDS011;18384;48.860;9.188;2022-11-20T09:05:06;1.90;;;1.05;;
31818;SDS011;18384;48.860;9.188;2022-11-20T09:09:59;2.45;;;1.00;;
31818;SDS011;18384;48.860;9.188;2022-11-20T09:12:25;2.33;;;0.90;;
31818;SDS011;18384;48.860;9.188;2022-11-20T09:14:51;2.80;;;1.10;;
31818;SDS011;18384;48.860;9.188;2022-11-20T09:17:18;1.40;;;0.80;;
31818;SDS011;18384;48.860;9.188;2022-11-20T09:19:45;2.15;;;1.10;;
31818;SDS011;18384;48.860;9.188;2022-11-20T09:22:11;2.30;;;1.20;;
31818;SDS011;18384;48.860;9.188;2022-11-20T09:24:37;2.47;;;1.10;;
31818;SDS011;18384;48.860;9.188;2022-11-20T09:27:04;3.17;;;1.05;;
31818;SDS011;18384;48.860;9.188;2022-11-20T09:29:30;1.52;;;0.90;;
31818;SDS011;18384;48.860;9.188;2022-11-20T09:31:57;3.62;;;1.20;;
31818;SDS011;18384;48.860;9.188;2022-11-20T09:34:24;2.20;;;1.02;;
31818;SDS011;18384;48.860;9.188;2022-11-20T09:36:50;2.83;;;1.55;;
31818;SDS011;18384;48.860;9.188;2022-11-20T09:39:16;1.83;;;1.00;;
31818;SDS011;18384;48.860;9.188;2022-11-20T09:41:49;2.90;;;1.42;;
31818;SDS011;18384;48.860;9.188;2022-11-20T09:48:45;1.37;;;1.05;;
31818;SDS011;18384;48.860;9.188;2022-11-20T09:54:40;2.35;;;1.40;;
31818;SDS011;18384;48.860;9.188;2022-11-20T09:59:39;2.70;;;1.12;;
31818;SDS011;18384;48.860;9.188;2022-11-20T10:02:14;4.03;;;1.20;;
31818;SDS011;18384;48.860;9.188;2022-11-20T10:05:02;3.50;;;1.50;;
31818;SDS011;18384;48.860;9.188;2022-11-20T10:09:20;3.10;;;1.33;;
31818;SDS011;18384;48.860;9.188;2022-11-20T10:12:16;2.37;;;1.60;;
31818;SDS011;18384;48.860;9.188;2022-11-20T10:15:14;2.17;;;1.45;;
31818;SDS011;18384;48.860;9.188;2022-11-20T10:30:30;2.40;;;1.30;;
31818;SDS011;18384;48.860;9.188;2022-11-20T10:37:15;3.25;;;1.42;;
31818;SDS011;18384;48.860;9.188;2022-11-20T10:40:38;2.20;;;1.40;;
31818;SDS011;18384;48.860;9.188;2022-11-20T10:43:15;2.37;;;1.33;;
31818;SDS011;18384;48.860;9.188;2022-11-20T10:45:51;2.97;;;1.27;;
31818;SDS011;18384;48.860;9.188;2022-11-20T10:48:30;6.45;;;2.78;;
31818;SDS011;18384;48.860;9.188;2022-11-20T10:51:15;5.43;;;2.22;;
31818;SDS011;18384;48.860;9.188;2022-11-20T10:54:12;4.05;;;2.20;;
31818;SDS011;18384;48.860;9.188;2022-11-20T10:57:52;2.78;;;1.17;;
31818;SDS011;18384;48.860;9.188;2022-11-20T11:00:36;3.33;;;2.08;;
31818;SDS011;18384;48.860;9.188;2022-11-20T11:03:07;4.20;;;2.58;;
31818;SDS011;18384;48.860;9.188;2022-11-20T11:05:54;5.22;;;2.20;;
31818;SDS011;18384;48.860;9.188;2022-11-20T11:08:53;3.28;;;1.42;;
31818;SDS011;18384;48.860;9.188;2022-11-20T11:11:29;3.70;;;1.98;;
31818;SDS011;18384;48.860;9.188;2022-11-20T11:14:06;2.72;;;1.55;;
31818;SDS011;18384;48.860;9.188;2022-11-20T11:16:52;2.50;;;1.52;;
31818;SDS011;18384;48.860;9.188;2022-11-20T11:19:26;2.25;;;1.37;;
31818;SDS011;18384;48.860;9.188;2022-11-20T11:21:54;4.68;;;1.90;;
31818;SDS011;18384;48.860;9.188;2022-11-20T11:24:23;2.80;;;1.40;;
31818;SDS011;18384;48.860;9.188;2022-11-20T11:26:56;2.78;;;1.65;;
31818;SDS011;18384;48.860;9.188;2022-11-20T11:29:32;4.45;;;1.62;;
31818;SDS011;18384;48.860;9.188;2022-11-20T11:32:15;4.05;;;1.70;;
31818;SDS011;18384;48.860;9.188;2022-11-20T11:34:58;2.90;;;1.40;;
31818;SDS011;18384;48.860;9.188;2022-11-20T11:37:35;2.87;;;1.48;;
31818;SDS011;18384;48.860;9.188;2022-11-20T11:40:04;2.92;;;1.77;;
31818;SDS011;18384;48.860;9.188;2022-11-20T11:42:39;3.33;;;1.60;;
31818;SDS011;18384;48.860;9.188;2022-11-20T11:45:21;3.70;;;1.70;;
31818;SDS011;18384;48.860;9.188;2022-11-20T11:47:49;5.05;;;1.87;;
31818;SDS011;18384;48.860;9.188;2022-11-20T11:50:19;4.15;;;2.15;;
31818;SDS011;18384;48.860;9.188;2022-11-20T11:52:54;8.90;;;2.30;;
31818;SDS011;18384;48.860;9.188;2022-11-20T11:55:47;4.70;;;1.40;;
31818;SDS011;18384;48.860;9.188;2022-11-20T12:01:55;3.60;;;1.67;;
31818;SDS011;18384;48.860;9.188;2022-11-20T12:04:45;9.02;;;2.20;;
31818;SDS011;18384;48.860;9.188;2022-11-20T12:07:42;6.28;;;1.95;;
31818;SDS011;18384;48.860;9.188;2022-11-20T12:16:40;4.82;;;1.50;;
31818;SDS011;18384;48.860;9.188;2022-11-20T12:19:10;2.33;;;1.10;;
31818;SDS011;18384;48.860;9.188;2022-11-20T12:25:53;3.70;;;1.05;;
31818;SDS011;18384;48.860;9.188;2022-11-20T12:28:26;5.65;;;1.40;;
31818;SDS011;18384;48.860;9.188;2022-11-20T12:31:20;6.35;;;1.92;;
31818;SDS011;18384;48.860;9.188;2022-11-20T12:52:51;3.40;;;1.30;;
31818;SDS011;18384;48.860;9.188;2022-11-20T13:01:56;4.12;;;0.98;;
31818;SDS011;18384;48.860;9.188;2022-11-20T13:05:02;7.28;;;1.58;;
31818;SDS011;18384;48.860;9.188;2022-11-20T13:08:55;2.40;;;1.00;;
31818;SDS011;18384;48.860;9.188;2022-11-20T13:11:37;3.00;;;1.08;;
31818;SDS011;18384;48.860;9.188;2022-11-20T13:15:25;3.15;;;1.10;;
31818;SDS011;18384;48.860;9.188;2022-11-20T13:18:09;2.08;;;1.05;;
31818;SDS011;18384;48.860;9.188;2022-11-20T13:20:40;4.72;;;1.10;;
31818;SDS011;18384;48.860;9.188;2022-11-20T13:23:09;2.95;;;1.10;;
31818;SDS011;18384;48.860;9.188;2022-11-20T13:25:39;3.87;;;1.33;;
31818;SDS011;18384;48.860;9.188;2022-11-20T13:33:37;3.92;;;1.25;;
31818;SDS011;18384;48.860;9.188;2022-11-20T13:36:05;4.22;;;1.10;;
31818;SDS011;18384;48.860;9.188;2022-11-20T13:38:50;3.72;;;1.15;;
31818;SDS011;18384;48.860;9.188;2022-11-20T13:41:31;2.97;;;1.15;;
31818;SDS011;18384;48.860;9.188;2022-11-20T13:44:14;3.72;;;1.00;;
31818;SDS011;18384;48.860;9.188;2022-11-20T13:47:26;6.73;;;1.13;;
31818;SDS011;18384;48.860;9.188;2022-11-20T13:49:54;3.72;;;0.90;;
31818;SDS011;18384;48.860;9.188;2022-11-20T13:52:34;6.32;;;1.00;;
31818;SDS011;18384;48.860;9.188;2022-11-20T13:58:06;4.75;;;0.98;;
31818;SDS011;18384;48.860;9.188;2022-11-20T14:01:26;4.43;;;1.08;;
31818;SDS011;18384;48.860;9.188;2022-11-20T14:03:56;2.45;;;1.10;;
31818;SDS011;18384;48.860;9.188;2022-11-20T14:06:26;3.55;;;1.05;;
31818;SDS011;18384;48.860;9.188;2022-11-20T14:08:58;3.58;;;1.10;;
31818;SDS011;18384;48.860;9.188;2022-11-20T14:11:26;3.62;;;1.15;;
31818;SDS011;18384;48.860;9.188;2022-11-20T14:14:03;2.92;;;1.10;;
31818;SDS011;18384;48.860;9.188;2022-11-20T14:16:40;6.32;;;1.35;;
31818;SDS011;18384;48.860;9.188;2022-11-20T14:23:28;2.80;;;1.00;;
31818;SDS011;18384;48.860;9.188;2022-11-20T14:25:55;5.25;;;1.12;;
31818;SDS011;18384;48.860;9.188;2022-11-20T14:28:28;3.42;;;1.25;;
31818;SDS011;18384;48.860;9.188;2022-11-20T14:30:56;3.92;;;1.00;;
31818;SDS011;18384;48.860;9.188;2022-11-20T14:33:23;4.60;;;1.52;;
31818;SDS011;18384;48.860;9.188;2022-11-20T14:35:55;3.95;;;1.20;;
31818;SDS011;18384;48.860;9.188;2022-11-20T14:38:27;3.83;;;1.12;;
31818;SDS011;18384;48.860;9.188;2022-11-20T14:40:54;3.40;;;1.35;;
31818;SDS011;18384;48.860;9.188;2022-11-20T14:43:47;2.90;;;1.10;;
31818;SDS011;18384;48.860;9.188;2022-11-20T14:46:22;1.73;;;1.10;;
31818;SDS011;18384;48.860;9.188;2022-11-20T14:48:50;7.47;;;1.75;;
31818;SDS011;18384;48.860;9.188;2022-11-20T14:51:28;2.42;;;1.05;;
31818;SDS011;18384;48.860;9.188;2022-11-20T14:54:08;2.83;;;1.30;;
31818;SDS011;18384;48.860;9.188;2022-11-20T14:56:55;8.82;;;1.30;;
31818;SDS011;18384;48.860;9.188;2022-11-20T14:59:30;7.18;;;1.98;;
31818;SDS011;18384;48.860;9.188;2022-11-20T15:02:03;4.40;;;1.52;;
31818;SDS011;18384;48.860;9.188;2022-11-20T15:04:44;5.43;;;1.73;;
31818;SDS011;18384;48.860;9.188;2022-11-20T15:07:25;5.93;;;1.40;;
31818;SDS011;18384;48.860;9.188;2022-11-20T15:10:06;3.65;;;1.50;;
31818;SDS011;18384;48.860;9.188;2022-11-20T15:12:38;6.53;;;1.50;;
31818;SDS011;18384;48.860;9.188;2022-11-20T15:15:35;3.50;;;1.50;;
31818;SDS011;18384;48.860;9.188;2022-11-20T15:18:16;3.37;;;1.62;;
31818;SDS011;18384;48.860;9.188;2022-11-20T15:20:48;7.00;;;1.80;;
31818;SDS011;18384;48.860;9.188;2022-11-20T15:23:16;5.35;;;1.80;;
31818;SDS011;18384;48.860;9.188;2022-11-20T15:25:44;3.08;;;1.62;;
31818;SDS011;18384;48.860;9.188;2022-11-20T15:28:34;6.03;;;2.00;;
31818;SDS011;18384;48.860;9.188;2022-11-20T15:31:06;5.82;;;2.35;;
31818;SDS011;18384;48.860;9.188;2022-11-20T15:33:37;3.67;;;2.03;;
31818;SDS011;18384;48.860;9.188;2022-11-20T15:36:04;5.80;;;1.87;;
31818;SDS011;18384;48.860;9.188;2022-11-20T15:38:30;4.55;;;1.85;;
31818;SDS011;18384;48.860;9.188;2022-11-20T15:40:56;6.37;;;1.90;;
31818;SDS011;18384;48.860;9.188;2022-11-20T15:43:23;3.67;;;1.67;;
31818;SDS011;18384;48.860;9.188;2022-11-20T15:45:50;3.90;;;2.08;;
31818;SDS011;18384;48.860;9.188;2022-11-20T15:48:21;6.60;;;2.00;;
31818;SDS011;18384;48.860;9.188;2022-11-20T15:51:38;5.43;;;1.92;;
31818;SDS011;18384;48.860;9.188;2022-11-20T15:54:10;4.28;;;2.03;;
31818;SDS011;18384;48.860;9.188;2022-11-20T15:56:48;3.58;;;2.03;;
31818;SDS011;18384;48.860;9.188;2022-11-20T15:59:17;4.05;;;1.95;;
31818;SDS011;18384;48.860;9.188;2022-11-20T16:01:43;5.18;;;2.50;;
31818;SDS011;18384;48.860;9.188;2022-11-20T16:04:13;8.95;;;2.70;;
31818;SDS011;18384;48.860;9.188;2022-11-20T16:06:41;5.12;;;2.35;;
31818;SDS011;18384;48.860;9.188;2022-11-20T16:09:08;6.68;;;2.85;;
31818;SDS011;18384;48.860;9.188;2022-11-20T16:11:34;5.80;;;3.12;;
31818;SDS011;18384;48.860;9.188;2022-11-20T16:14:04;7.43;;;3.12;;
31818;SDS011;18384;48.860;9.188;2022-11-20T16:16:49;7.80;;;3.10;;
31818;SDS011;18384;48.860;9.188;2022-11-20T16:19:16;5.50;;;3.35;;
31818;SDS011;18384;48.860;9.188;2022-11-20T16:21:43;5.75;;;3.28;;
31818;SDS011;18384;48.860;9.188;2022-11-20T16:24:10;7.28;;;3.50;;
31818;SDS011;18384;48.860;9.188;2022-11-20T16:26:38;6.22;;;2.80;;
31818;SDS011;18384;48.860;9.188;2022-11-20T16:29:06;7.95;;;3.12;;
31818;SDS011;18384;48.860;9.188;2022-11-20T16:31:32;9.18;;;4.37;;
31818;SDS011;18384;48.860;9.188;2022-11-20T16:34:00;6.53;;;2.83;;
31818;SDS011;18384;48.860;9.188;2022-11-20T16:36:29;8.95;;;3.12;;
31818;SDS011;18384;48.860;9.188;2022-11-20T16:39:00;5.82;;;2.45;;
31818;SDS011;18384;48.860;9.188;2022-11-20T16:41:29;5.40;;;2.92;;
31818;SDS011;18384;48.860;9.188;2022-11-20T16:43:59;6.12;;;2.75;;
31818;SDS011;18384;48.860;9.188;2022-11-20T16:46:27;6.43;;;2.83;;
31818;SDS011;18384;48.860;9.188;2022-11-20T16:48:56;5.75;;;2.72;;
31818;SDS011;18384;48.860;9.188;2022-11-20T16:51:28;6.10;;;2.87;;
31818;SDS011;18384;48.860;9.188;2022-11-20T16:53:56;8.95;;;3.00;;
31818;SDS011;18384;48.860;9.188;2022-11-20T16:56:26;7.82;;;3.55;;
31818;SDS011;18384;48.860;9.188;2022-11-20T16:58:53;5.20;;;2.37;;
31818;SDS011;18384;48.860;9.188;2022-11-20T17:01:21;8.48;;;3.70;;
31818;SDS011;18384;48.860;9.188;2022-11-20T17:03:59;5.95;;;3.00;;
31818;SDS011;18384;48.860;9.188;2022-11-20T17:06:29;7.22;;;3.45;;
31818;SDS011;18384;48.860;9.188;2022-11-20T17:08:58;5.97;;;2.62;;
31818;SDS011;18384;48.860;9.188;2022-11-20T17:11:24;8.20;;;2.92;;
31818;SDS011;18384;48.860;9.188;2022-11-20T17:13:51;6.68;;;3.10;;